createdAt,value
2022-11-24T00:00:36.272Z,982.43
2022-11-24T00:01:37.986Z,982.39
2022-11-24T00:02:39.974Z,982.43
2022-11-24T00:03:41.542Z,982.44
2022-11-24T00:04:43.120Z,982.41
2022-11-24T00:05:44.878Z,982.42
2022-11-24T00:06:46.584Z,982.43
2022-11-24T00:07:48.437Z,982.49
2022-11-24T00:08:50.049Z,982.5
2022-11-24T00:09:51.792Z,982.45
2022-11-24T00:10:53.519Z,982.45
2022-11-24T00:11:55.245Z,982.48
2022-11-24T00:12:56.988Z,982.44
2022-11-24T00:13:58.722Z,982.4
2022-11-24T00:15:00.460Z,982.44
2022-11-24T00:16:02.179Z,982.4
2022-11-24T00:17:04.012Z,982.4
2022-11-24T00:18:05.649Z,982.39
2022-11-24T00:19:07.384Z,982.42
2022-11-24T00:20:09.114Z,982.44
2022-11-24T00:21:10.861Z,982.49
2022-11-24T00:22:12.623Z,982.51
2022-11-24T00:23:14.318Z,982.51
2022-11-24T00:24:16.051Z,982.51
2022-11-24T00:25:17.782Z,982.53
2022-11-24T00:26:19.514Z,982.58
2022-11-24T00:27:21.248Z,982.6
2022-11-24T00:28:22.982Z,982.53
2022-11-24T00:29:24.808Z,982.63
2022-11-24T00:30:26.508Z,982.65
2022-11-24T00:31:28.246Z,982.64
2022-11-24T00:32:29.919Z,982.64
2022-11-24T00:33:31.640Z,982.64
2022-11-24T00:34:33.693Z,982.72
2022-11-24T00:35:35.112Z,982.71
2022-11-24T00:36:37.057Z,982.75
2022-11-24T00:37:38.591Z,982.76
2022-11-24T00:38:40.324Z,982.7
2022-11-24T00:39:42.047Z,982.74
2022-11-24T00:40:43.772Z,982.77
2022-11-24T00:41:45.517Z,982.69
2022-11-24T00:42:47.279Z,982.79
2022-11-24T00:43:49.016Z,982.8
2022-11-24T00:44:50.717Z,982.79
2022-11-24T00:45:52.595Z,982.83
2022-11-24T00:46:54.320Z,982.82
2022-11-24T00:47:55.912Z,982.73
2022-11-24T00:48:57.643Z,982.82
2022-11-24T00:49:59.367Z,982.84
2022-11-24T00:51:01.108Z,982.86
2022-11-24T00:52:02.927Z,982.91
2022-11-24T00:53:04.570Z,982.89
2022-11-24T00:54:06.306Z,982.92
2022-11-24T00:55:08.052Z,982.9
2022-11-24T00:56:09.772Z,982.9
2022-11-24T00:57:11.508Z,982.9
2022-11-24T00:58:13.279Z,982.9
2022-11-24T00:59:14.973Z,982.95
2022-11-24T01:00:16.709Z,982.97
2022-11-24T01:01:18.517Z,982.99
2022-11-24T01:02:20.274Z,983.03
2022-11-24T01:03:21.911Z,983.05
2022-11-24T01:04:23.659Z,982.97
2022-11-24T01:05:25.419Z,983.02
2022-11-24T01:06:27.136Z,983.01
2022-11-24T01:07:28.931Z,982.99
2022-11-24T01:08:30.580Z,983.03
2022-11-24T01:09:32.350Z,983.03
2022-11-24T01:10:34.048Z,983.08
2022-11-24T01:11:35.777Z,983.09
2022-11-24T01:12:37.501Z,983.07
2022-11-24T01:13:39.250Z,983.1
2022-11-24T01:14:41.026Z,983.14
2022-11-24T01:15:42.801Z,983.15
2022-11-24T01:16:44.452Z,983.22
2022-11-24T01:17:46.181Z,983.2
2022-11-24T01:18:47.956Z,983.2
2022-11-24T01:19:49.655Z,983.25
2022-11-24T01:20:51.369Z,983.19
2022-11-24T01:21:53.119Z,983.26
2022-11-24T01:22:54.844Z,983.17
2022-11-24T01:23:56.575Z,983.2
2022-11-24T01:24:58.309Z,983.2
2022-11-24T01:26:00.045Z,983.24
2022-11-24T01:27:01.781Z,983.23
2022-11-24T01:28:03.581Z,983.22
2022-11-24T01:29:05.280Z,983.22
2022-11-24T01:30:06.976Z,983.22
2022-11-24T01:31:08.841Z,983.27
2022-11-24T01:32:10.468Z,983.24
2022-11-24T01:33:12.179Z,983.3
2022-11-24T01:34:13.917Z,983.2
2022-11-24T01:35:15.632Z,983.27
2022-11-24T01:36:17.369Z,983.31
2022-11-24T01:37:19.109Z,983.34
2022-11-24T01:38:20.851Z,983.35
2022-11-24T01:39:22.580Z,983.35
2022-11-24T01:40:24.309Z,983.33
2022-11-24T01:41:26.041Z,983.4
2022-11-24T01:42:27.784Z,983.37
2022-11-24T01:43:29.515Z,983.32
2022-11-24T01:44:31.633Z,983.35
2022-11-24T01:45:32.956Z,983.37
2022-11-24T01:46:34.810Z,983.38
2022-11-24T01:47:36.548Z,983.45
2022-11-24T01:48:38.152Z,983.47
2022-11-24T01:49:39.888Z,983.44
2022-11-24T01:50:41.603Z,983.49
2022-11-24T01:51:43.346Z,983.46
2022-11-24T01:52:45.081Z,983.48
2022-11-24T01:53:46.848Z,983.45
2022-11-24T01:54:48.552Z,983.45
2022-11-24T01:55:50.281Z,983.46
2022-11-24T01:56:52.023Z,983.44
2022-11-24T01:57:53.741Z,983.44
2022-11-24T01:58:55.512Z,983.51
2022-11-24T01:59:57.237Z,983.47
2022-11-24T02:00:58.991Z,983.45
2022-11-24T02:02:00.788Z,983.43
2022-11-24T02:03:02.550Z,983.45
2022-11-24T02:04:04.151Z,983.43
2022-11-24T02:05:05.876Z,983.46
2022-11-24T02:06:07.780Z,983.42
2022-11-24T02:07:08.715Z,983.45
2022-11-24T02:08:15.519Z,983.48
2022-11-24T02:09:18.010Z,983.44
2022-11-24T02:10:19.693Z,983.48
2022-11-24T02:11:21.433Z,983.45
2022-11-24T02:12:23.219Z,983.41
2022-11-24T02:13:24.891Z,983.42
2022-11-24T02:14:26.664Z,983.42
2022-11-24T02:15:28.361Z,983.41
2022-11-24T02:16:30.147Z,983.41
2022-11-24T02:17:31.825Z,983.45
2022-11-24T02:18:33.555Z,983.42
2022-11-24T02:19:35.277Z,983.44
2022-11-24T02:20:37.009Z,983.5
2022-11-24T02:21:38.775Z,983.52
2022-11-24T02:22:40.454Z,983.49
2022-11-24T02:23:42.256Z,983.43
2022-11-24T02:24:43.938Z,983.5
2022-11-24T02:25:45.669Z,983.48
2022-11-24T02:26:47.411Z,983.5
2022-11-24T02:27:53.682Z,983.48
2022-11-24T02:28:50.825Z,983.49
2022-11-24T02:29:52.571Z,983.47
2022-11-24T02:30:54.369Z,983.5
2022-11-24T02:31:56.016Z,983.55
2022-11-24T02:32:57.738Z,983.5
2022-11-24T02:33:59.484Z,983.55
2022-11-24T02:35:01.218Z,983.54
2022-11-24T02:36:02.904Z,983.51
2022-11-24T02:37:04.671Z,983.55
2022-11-24T02:38:06.357Z,983.51
2022-11-24T02:39:08.119Z,983.59
2022-11-24T02:40:09.834Z,983.56
2022-11-24T02:41:11.529Z,983.6
2022-11-24T02:42:13.256Z,983.56
2022-11-24T02:43:14.972Z,983.65
2022-11-24T02:44:16.730Z,983.63
2022-11-24T02:45:18.484Z,983.6
2022-11-24T02:46:20.223Z,983.65
2022-11-24T02:47:21.871Z,983.64
2022-11-24T02:48:23.631Z,983.67
2022-11-24T02:49:25.314Z,983.66
2022-11-24T02:50:27.048Z,983.69
2022-11-24T02:51:28.810Z,983.71
2022-11-24T02:52:30.489Z,983.72
2022-11-24T02:53:32.217Z,983.71
2022-11-24T02:54:34.241Z,983.7
2022-11-24T02:55:35.706Z,983.73
2022-11-24T02:56:37.380Z,983.74
2022-11-24T02:57:39.145Z,983.7
2022-11-24T02:58:40.844Z,983.71
2022-11-24T02:59:42.567Z,983.7
2022-11-24T03:00:44.399Z,983.71
2022-11-24T03:01:46.119Z,983.73
2022-11-24T03:02:47.876Z,983.72
2022-11-24T03:03:49.528Z,983.73
2022-11-24T03:04:51.244Z,983.74
2022-11-24T03:05:52.981Z,983.71
2022-11-24T03:06:54.706Z,983.68
2022-11-24T03:07:56.537Z,983.72
2022-11-24T03:08:58.196Z,983.69
2022-11-24T03:09:59.963Z,983.72
2022-11-24T03:11:01.674Z,983.71
2022-11-24T03:12:03.374Z,983.72
2022-11-24T03:13:05.103Z,983.74
2022-11-24T03:14:06.871Z,983.71
2022-11-24T03:15:08.587Z,983.62
2022-11-24T03:16:10.495Z,983.69
2022-11-24T03:17:12.046Z,983.69
2022-11-24T03:18:15.062Z,983.67
2022-11-24T03:19:15.532Z,983.64
2022-11-24T03:20:17.229Z,983.62
2022-11-24T03:21:19.023Z,983.57
2022-11-24T03:22:22.237Z,983.51
2022-11-24T03:23:22.443Z,983.47
2022-11-24T03:24:24.176Z,983.51
2022-11-24T03:25:25.963Z,983.6
2022-11-24T03:26:27.671Z,983.61
2022-11-24T03:27:29.399Z,983.56
2022-11-24T03:28:31.100Z,983.65
2022-11-24T03:29:32.838Z,983.63
2022-11-24T03:30:34.602Z,983.62
2022-11-24T03:31:36.414Z,983.55
2022-11-24T03:32:38.068Z,983.55
2022-11-24T03:33:39.771Z,983.53
2022-11-24T03:34:41.639Z,983.58
2022-11-24T03:35:43.238Z,983.57
2022-11-24T03:36:44.973Z,983.58
2022-11-24T03:37:46.734Z,983.56
2022-11-24T03:38:48.451Z,983.56
2022-11-24T03:39:50.215Z,983.63
2022-11-24T03:40:51.909Z,983.6
2022-11-24T03:41:53.647Z,983.6
2022-11-24T03:42:55.409Z,983.6
2022-11-24T03:43:57.137Z,983.59
2022-11-24T03:45:04.244Z,983.6
2022-11-24T03:46:00.651Z,983.62
2022-11-24T03:47:02.326Z,983.58
2022-11-24T03:48:04.046Z,983.64
2022-11-24T03:49:05.799Z,983.67
2022-11-24T03:50:07.565Z,983.7
2022-11-24T03:51:09.242Z,983.71
2022-11-24T03:52:10.968Z,983.75
2022-11-24T03:53:12.715Z,983.76
2022-11-24T03:54:14.483Z,983.75
2022-11-24T03:55:16.225Z,983.78
2022-11-24T03:56:17.920Z,983.75
2022-11-24T03:57:19.666Z,983.77
2022-11-24T03:58:21.381Z,983.69
2022-11-24T03:59:23.127Z,983.69
2022-11-24T04:00:24.887Z,983.7
2022-11-24T04:01:26.688Z,983.8
2022-11-24T04:02:28.356Z,983.75
2022-11-24T04:03:30.075Z,983.8
2022-11-24T04:04:32.133Z,983.84
2022-11-24T04:05:33.539Z,983.78
2022-11-24T04:06:35.248Z,983.85
2022-11-24T04:07:37.046Z,983.81
2022-11-24T04:08:38.697Z,983.77
2022-11-24T04:09:40.486Z,983.77
2022-11-24T04:10:42.174Z,983.82
2022-11-24T04:11:43.910Z,983.81
2022-11-24T04:12:45.677Z,983.78
2022-11-24T04:13:47.372Z,983.83
2022-11-24T04:14:50.397Z,983.83
2022-11-24T04:15:50.910Z,983.84
2022-11-24T04:16:52.613Z,983.84
2022-11-24T04:17:54.358Z,983.86
2022-11-24T04:18:56.054Z,983.86
2022-11-24T04:19:57.805Z,983.86
2022-11-24T04:20:59.499Z,983.88
2022-11-24T04:22:01.293Z,983.86
2022-11-24T04:23:02.937Z,983.91
2022-11-24T04:24:04.687Z,983.86
2022-11-24T04:25:06.400Z,983.89
2022-11-24T04:26:08.153Z,983.92
2022-11-24T04:27:09.873Z,983.88
2022-11-24T04:28:11.600Z,983.91
2022-11-24T04:29:13.333Z,983.92
2022-11-24T04:30:15.079Z,983.91
2022-11-24T04:31:16.909Z,983.92
2022-11-24T04:32:18.544Z,983.9
2022-11-24T04:33:20.274Z,983.96
2022-11-24T04:34:22.002Z,983.88
2022-11-24T04:35:23.747Z,983.97
2022-11-24T04:36:25.510Z,983.96
2022-11-24T04:37:28.475Z,983.96
2022-11-24T04:39:23.901Z,984.01
2022-11-24T04:39:30.678Z,984.01
2022-11-24T04:40:32.401Z,984.01
2022-11-24T04:41:34.143Z,983.99
2022-11-24T04:42:35.876Z,984.02
2022-11-24T04:43:40.564Z,983.99
2022-11-24T04:44:39.358Z,983.98
2022-11-24T04:45:41.108Z,984.01
2022-11-24T04:46:42.853Z,983.99
2022-11-24T04:47:44.541Z,983.97
2022-11-24T04:48:46.305Z,983.95
2022-11-24T04:49:48.006Z,983.92
2022-11-24T04:50:49.769Z,984.04
2022-11-24T04:51:51.527Z,984.04
2022-11-24T04:52:53.240Z,984.01
2022-11-24T04:53:54.976Z,984.07
2022-11-24T04:54:56.725Z,984.06
2022-11-24T04:55:58.427Z,984.06
2022-11-24T04:57:00.160Z,984.04
2022-11-24T04:58:01.897Z,984.11
2022-11-24T04:59:07.982Z,984.12
2022-11-24T05:00:05.378Z,984.14
2022-11-24T05:01:07.113Z,984.14
2022-11-24T05:02:08.934Z,984.18
2022-11-24T05:03:10.549Z,984.19
2022-11-24T05:04:12.412Z,984.19
2022-11-24T05:05:14.016Z,984.2
2022-11-24T05:06:15.743Z,984.23
2022-11-24T05:07:19.077Z,984.29
2022-11-24T05:08:19.244Z,984.27
2022-11-24T05:09:20.942Z,984.27
2022-11-24T05:10:22.685Z,984.29
2022-11-24T05:11:24.411Z,984.3
2022-11-24T05:12:26.136Z,984.33
2022-11-24T05:13:29.184Z,984.24
2022-11-24T05:14:29.607Z,984.32
2022-11-24T05:15:31.338Z,984.4
2022-11-24T05:16:33.140Z,984.35
2022-11-24T05:17:34.851Z,984.37
2022-11-24T05:18:36.597Z,984.38
2022-11-24T05:19:38.281Z,984.42
2022-11-24T05:20:40.034Z,984.45
2022-11-24T05:21:43.808Z,984.49
2022-11-24T05:22:48.638Z,984.49
2022-11-24T05:23:50.375Z,984.48
2022-11-24T05:24:52.116Z,984.49
2022-11-24T05:25:53.812Z,984.45
2022-11-24T05:26:56.889Z,984.5
2022-11-24T05:27:57.428Z,984.52
2022-11-24T05:28:59.060Z,984.57
2022-11-24T05:30:00.744Z,984.51
2022-11-24T05:31:02.533Z,984.56
2022-11-24T05:32:04.283Z,984.54
2022-11-24T05:33:06.129Z,984.57
2022-11-24T05:34:07.689Z,984.61
2022-11-24T05:35:09.427Z,984.54
2022-11-24T05:36:16.351Z,984.59
2022-11-24T05:37:18.081Z,984.61
2022-11-24T05:38:19.780Z,984.59
2022-11-24T05:39:21.504Z,984.64
2022-11-24T05:40:23.235Z,984.65
2022-11-24T05:41:24.976Z,984.66
2022-11-24T05:42:26.727Z,984.66
2022-11-24T05:43:28.430Z,984.69
2022-11-24T05:44:30.153Z,984.7
2022-11-24T05:45:31.899Z,984.69
2022-11-24T05:46:33.756Z,984.7
2022-11-24T05:47:35.362Z,984.65
2022-11-24T05:48:37.141Z,984.68
2022-11-24T05:49:38.824Z,984.62
2022-11-24T05:50:40.565Z,984.63
2022-11-24T05:51:42.296Z,984.68
2022-11-24T05:52:44.060Z,984.62
2022-11-24T05:53:45.777Z,984.63
2022-11-24T05:54:47.498Z,984.64
2022-11-24T05:55:49.230Z,984.62
2022-11-24T05:56:50.972Z,984.66
2022-11-24T05:57:52.699Z,984.65
2022-11-24T05:58:54.428Z,984.66
2022-11-24T05:59:56.167Z,984.64
2022-11-24T06:00:57.904Z,984.68
2022-11-24T06:01:59.707Z,984.64
2022-11-24T06:03:01.577Z,984.65
2022-11-24T06:04:03.103Z,984.67
2022-11-24T06:05:04.853Z,984.67
2022-11-24T06:06:06.584Z,984.64
2022-11-24T06:07:08.363Z,984.63
2022-11-24T06:08:10.061Z,984.66
2022-11-24T06:09:11.764Z,984.66
2022-11-24T06:10:13.531Z,984.66
2022-11-24T06:11:15.240Z,984.66
2022-11-24T06:12:16.970Z,984.69
2022-11-24T06:13:18.780Z,984.64
2022-11-24T06:14:20.431Z,984.67
2022-11-24T06:15:22.180Z,984.69
2022-11-24T06:16:24.002Z,984.72
2022-11-24T06:17:25.635Z,984.71
2022-11-24T06:18:27.394Z,984.78
2022-11-24T06:19:29.107Z,984.77
2022-11-24T06:20:32.897Z,984.73
2022-11-24T06:21:32.562Z,984.72
2022-11-24T06:22:34.318Z,984.86
2022-11-24T06:23:36.048Z,984.82
2022-11-24T06:24:37.769Z,984.8
2022-11-24T06:25:39.522Z,984.83
2022-11-24T06:26:41.232Z,984.78
2022-11-24T06:27:42.970Z,984.8
2022-11-24T06:28:44.713Z,984.8
2022-11-24T06:29:46.469Z,984.79
2022-11-24T06:30:48.183Z,984.78
2022-11-24T06:31:50.016Z,984.79
2022-11-24T06:32:51.661Z,984.79
2022-11-24T06:33:53.372Z,984.85
2022-11-24T06:34:55.106Z,984.79
2022-11-24T06:35:56.872Z,984.77
2022-11-24T06:36:58.672Z,984.85
2022-11-24T06:38:00.300Z,984.81
2022-11-24T06:39:02.053Z,984.87
2022-11-24T06:40:03.770Z,984.88
2022-11-24T06:41:05.504Z,984.86
2022-11-24T06:42:07.242Z,984.88
2022-11-24T06:43:08.967Z,984.89
2022-11-24T06:44:10.705Z,984.89
2022-11-24T06:45:12.446Z,984.95
2022-11-24T06:46:14.246Z,984.94
2022-11-24T06:47:15.895Z,984.91
2022-11-24T06:48:17.691Z,984.92
2022-11-24T06:49:19.377Z,984.9
2022-11-24T06:50:21.120Z,984.9
2022-11-24T06:51:22.856Z,984.95
2022-11-24T06:52:24.568Z,984.95
2022-11-24T06:53:26.312Z,984.96
2022-11-24T06:54:28.108Z,984.95
2022-11-24T06:55:29.850Z,984.95
2022-11-24T06:56:31.520Z,985.01
2022-11-24T06:57:33.251Z,985.03
2022-11-24T06:58:34.976Z,984.99
2022-11-24T06:59:36.712Z,985.1
2022-11-24T07:00:38.506Z,985.14
2022-11-24T07:01:40.215Z,985.17
2022-11-24T07:02:45.923Z,985.18
2022-11-24T07:03:43.645Z,985.23
2022-11-24T07:04:45.389Z,985.26
2022-11-24T07:05:47.109Z,985.24
2022-11-24T07:06:48.843Z,985.27
2022-11-24T07:07:51.072Z,985.24
2022-11-24T07:08:52.319Z,985.22
2022-11-24T07:09:54.072Z,985.25
2022-11-24T07:10:55.782Z,985.23
2022-11-24T07:11:57.505Z,985.27
2022-11-24T07:12:59.244Z,985.33
2022-11-24T07:14:00.981Z,985.34
2022-11-24T07:15:02.715Z,985.32
2022-11-24T07:16:04.478Z,985.33
2022-11-24T07:17:06.176Z,985.39
2022-11-24T07:18:07.908Z,985.4
2022-11-24T07:19:09.655Z,985.38
2022-11-24T07:20:11.392Z,985.4
2022-11-24T07:21:13.118Z,985.32
2022-11-24T07:22:14.849Z,985.35
2022-11-24T07:23:16.624Z,985.4
2022-11-24T07:24:18.339Z,985.47
2022-11-24T07:25:20.051Z,985.49
2022-11-24T07:26:21.781Z,985.49
2022-11-24T07:27:23.508Z,985.52
2022-11-24T07:28:25.246Z,985.57
2022-11-24T07:29:26.994Z,985.56
2022-11-24T07:30:28.833Z,985.63
2022-11-24T07:31:30.565Z,985.62
2022-11-24T07:32:32.168Z,985.62
2022-11-24T07:33:33.902Z,985.65
2022-11-24T07:34:36.028Z,985.73
2022-11-24T07:35:37.368Z,985.73
2022-11-24T07:36:39.164Z,985.77
2022-11-24T07:37:40.836Z,985.77
2022-11-24T07:38:42.580Z,985.77
2022-11-24T07:39:44.308Z,985.8
2022-11-24T07:40:46.041Z,985.73
2022-11-24T07:41:47.777Z,985.82
2022-11-24T07:42:49.503Z,985.85
2022-11-24T07:43:51.234Z,985.82
2022-11-24T07:44:52.986Z,985.87
2022-11-24T07:45:54.798Z,985.89
2022-11-24T07:46:56.486Z,985.87
2022-11-24T07:47:58.176Z,985.91
2022-11-24T07:48:59.919Z,985.88
2022-11-24T07:50:01.652Z,985.92
2022-11-24T07:51:03.397Z,985.87
2022-11-24T07:52:05.102Z,985.95
2022-11-24T07:53:06.853Z,985.94
2022-11-24T07:54:08.590Z,985.92
2022-11-24T07:55:10.313Z,985.89
2022-11-24T07:56:12.046Z,985.89
2022-11-24T07:57:13.778Z,985.96
2022-11-24T07:58:15.520Z,985.91
2022-11-24T07:59:17.253Z,985.95
2022-11-24T08:00:18.996Z,985.96
2022-11-24T08:01:20.815Z,985.95
2022-11-24T08:02:22.463Z,986
2022-11-24T08:03:24.217Z,986.05
2022-11-24T08:04:25.919Z,986.06
2022-11-24T08:05:27.646Z,986.07
2022-11-24T08:06:37.457Z,986.12
2022-11-24T08:07:31.164Z,986.13
2022-11-24T08:08:32.840Z,986.13
2022-11-24T08:09:34.586Z,986.17
2022-11-24T08:10:36.311Z,986.15
2022-11-24T08:11:38.056Z,986.2
2022-11-24T08:12:41.034Z,986.22
2022-11-24T08:13:41.504Z,986.24
2022-11-24T08:14:43.254Z,986.28
2022-11-24T08:15:44.975Z,986.31
2022-11-24T08:16:46.812Z,986.32
2022-11-24T08:17:48.500Z,986.36
2022-11-24T08:18:50.172Z,986.33
2022-11-24T08:19:51.975Z,986.36
2022-11-24T08:20:53.648Z,986.41
2022-11-24T08:21:55.375Z,986.44
2022-11-24T08:22:57.125Z,986.39
2022-11-24T08:23:58.840Z,986.48
2022-11-24T08:25:00.571Z,986.48
2022-11-24T08:26:02.307Z,986.48
2022-11-24T08:27:04.041Z,986.45
2022-11-24T08:28:05.763Z,986.4
2022-11-24T08:29:07.506Z,986.43
2022-11-24T08:30:09.234Z,986.48
2022-11-24T08:31:11.008Z,986.5
2022-11-24T08:32:17.416Z,986.43
2022-11-24T08:33:14.448Z,986.47
2022-11-24T08:34:16.209Z,986.48
2022-11-24T08:35:17.900Z,986.45
2022-11-24T08:36:19.644Z,986.46
2022-11-24T08:37:21.410Z,986.43
2022-11-24T08:38:23.098Z,986.37
2022-11-24T08:39:24.868Z,986.43
2022-11-24T08:40:26.591Z,986.5
2022-11-24T08:41:28.449Z,986.49
2022-11-24T08:42:30.070Z,986.47
2022-11-24T08:43:31.779Z,986.51
2022-11-24T08:44:33.888Z,986.54
2022-11-24T08:45:40.998Z,986.52
2022-11-24T08:46:37.048Z,986.47
2022-11-24T08:47:38.698Z,986.53
2022-11-24T08:48:40.437Z,986.54
2022-11-24T08:49:42.174Z,986.52
2022-11-24T08:50:43.920Z,986.53
2022-11-24T08:51:45.645Z,986.56
2022-11-24T08:52:47.375Z,986.58
2022-11-24T08:53:49.186Z,986.56
2022-11-24T08:54:50.839Z,986.5
2022-11-24T08:55:52.573Z,986.59
2022-11-24T08:56:54.308Z,986.57
2022-11-24T08:57:56.053Z,986.57
2022-11-24T08:58:57.827Z,986.56
2022-11-24T08:59:59.512Z,986.6
2022-11-24T09:01:01.317Z,986.6
2022-11-24T09:02:03.014Z,986.62
2022-11-24T09:03:04.793Z,986.6
2022-11-24T09:04:06.572Z,986.67
2022-11-24T09:05:28.685Z,986.67
2022-11-24T09:06:14.255Z,986.7
2022-11-24T09:07:16.893Z,986.76
2022-11-24T09:08:18.565Z,986.72
2022-11-24T09:09:20.298Z,986.71
2022-11-24T09:10:22.074Z,986.68
2022-11-24T09:11:23.757Z,986.76
2022-11-24T09:12:25.487Z,986.79
2022-11-24T09:13:27.226Z,986.82
2022-11-24T09:14:28.897Z,986.84
2022-11-24T09:15:30.642Z,986.84
2022-11-24T09:16:32.394Z,986.85
2022-11-24T09:17:34.099Z,986.85
2022-11-24T09:18:35.832Z,986.89
2022-11-24T09:19:37.573Z,986.85
2022-11-24T09:20:39.290Z,986.87
2022-11-24T09:21:41.022Z,986.88
2022-11-24T09:22:42.752Z,986.88
2022-11-24T09:23:44.492Z,986.86
2022-11-24T09:24:46.224Z,986.91
2022-11-24T09:25:47.982Z,986.89
2022-11-24T09:26:49.690Z,986.93
2022-11-24T09:27:51.420Z,986.88
2022-11-24T09:28:53.159Z,986.96
2022-11-24T09:29:54.929Z,986.92
2022-11-24T09:30:56.879Z,986.99
2022-11-24T09:32:02.122Z,986.95
2022-11-24T09:33:00.112Z,986.97
2022-11-24T09:34:01.822Z,986.96
2022-11-24T09:35:03.568Z,986.99
2022-11-24T09:36:05.294Z,986.99
2022-11-24T09:37:07.084Z,986.98
2022-11-24T09:38:08.751Z,986.97
2022-11-24T09:39:10.491Z,986.94
2022-11-24T09:40:12.217Z,986.98
2022-11-24T09:41:13.971Z,987.03
2022-11-24T09:42:15.683Z,987.05
2022-11-24T09:43:17.436Z,987.06
2022-11-24T09:44:19.168Z,987.09
2022-11-24T09:45:41.736Z,987.07
2022-11-24T09:46:22.661Z,987.12
2022-11-24T09:47:23.126Z,987.16
2022-11-24T09:49:05.510Z,987.16
2022-11-24T09:50:10.265Z,987.15
2022-11-24T09:51:11.999Z,987.18
2022-11-24T09:52:15.466Z,987.18
2022-11-24T09:53:17.181Z,987.19
2022-11-24T09:54:18.918Z,987.18
2022-11-24T09:55:20.666Z,987.22
2022-11-24T09:56:22.416Z,987.26
2022-11-24T09:57:24.121Z,987.28
2022-11-24T09:58:25.862Z,987.26
2022-11-24T09:59:27.611Z,987.28
2022-11-24T10:00:29.316Z,987.26
2022-11-24T10:01:31.157Z,987.25
2022-11-24T10:02:32.777Z,987.3
2022-11-24T10:03:34.528Z,987.29
2022-11-24T10:04:36.321Z,987.26
2022-11-24T10:05:37.981Z,987.36
2022-11-24T10:06:39.730Z,987.31
2022-11-24T10:07:41.643Z,987.36
2022-11-24T10:08:43.200Z,987.34
2022-11-24T10:09:44.960Z,987.38
2022-11-24T10:10:46.656Z,987.33
2022-11-24T10:11:48.376Z,987.37
2022-11-24T10:12:50.130Z,987.44
2022-11-24T10:13:51.822Z,987.45
2022-11-24T10:14:53.543Z,987.4
2022-11-24T10:15:56.527Z,987.39
2022-11-24T10:16:57.053Z,987.42
2022-11-24T10:17:58.802Z,987.44
2022-11-24T10:19:00.515Z,987.39
2022-11-24T10:20:02.270Z,987.36
2022-11-24T10:21:03.971Z,987.39
2022-11-24T10:22:05.729Z,987.39
2022-11-24T10:23:07.430Z,987.41
2022-11-24T10:24:09.173Z,987.41
2022-11-24T10:25:10.895Z,987.47
2022-11-24T10:26:12.954Z,987.47
2022-11-24T10:27:14.372Z,987.44
2022-11-24T10:28:16.103Z,987.43
2022-11-24T10:29:17.883Z,987.43
2022-11-24T10:30:19.599Z,987.44
2022-11-24T10:31:21.403Z,987.47
2022-11-24T10:32:23.026Z,987.42
2022-11-24T10:33:30.320Z,987.44
2022-11-24T10:34:26.499Z,987.4
2022-11-24T10:35:28.576Z,987.42
2022-11-24T10:36:31.371Z,987.43
2022-11-24T10:37:31.685Z,987.45
2022-11-24T10:38:33.401Z,987.47
2022-11-24T10:39:35.400Z,987.44
2022-11-24T10:41:38.599Z,987.55
2022-11-24T10:42:40.336Z,987.53
2022-11-24T10:43:42.078Z,987.57
2022-11-24T10:44:43.801Z,987.55
2022-11-24T10:45:45.529Z,987.54
2022-11-24T10:46:47.302Z,987.52
2022-11-24T10:47:48.999Z,987.5
2022-11-24T10:48:50.713Z,987.51
2022-11-24T10:49:52.467Z,987.47
2022-11-24T10:50:54.210Z,987.43
2022-11-24T10:51:55.978Z,987.44
2022-11-24T10:52:57.677Z,987.42
2022-11-24T10:53:59.853Z,987.45
2022-11-24T10:55:01.128Z,987.45
2022-11-24T10:56:02.880Z,987.49
2022-11-24T10:57:04.607Z,987.5
2022-11-24T10:58:06.336Z,987.52
2022-11-24T10:59:08.070Z,987.51
2022-11-24T11:00:09.813Z,987.5
2022-11-24T11:01:11.590Z,987.56
2022-11-24T11:02:13.313Z,987.49
2022-11-24T11:03:15.059Z,987.55
2022-11-24T11:04:16.741Z,987.5
2022-11-24T11:05:18.503Z,987.56
2022-11-24T11:06:20.216Z,987.6
2022-11-24T11:07:22.018Z,987.6
2022-11-24T11:08:23.675Z,987.63
2022-11-24T11:09:25.398Z,987.62
2022-11-24T11:10:27.172Z,987.65
2022-11-24T11:11:28.908Z,987.66
2022-11-24T11:12:44.433Z,987.73
2022-11-24T11:13:32.350Z,987.63
2022-11-24T11:14:34.075Z,987.68
2022-11-24T11:15:35.884Z,987.65
2022-11-24T11:16:37.530Z,987.74
2022-11-24T11:17:39.281Z,987.76
2022-11-24T11:18:41.016Z,987.69
2022-11-24T11:19:50.060Z,987.76
2022-11-24T11:20:44.463Z,987.73
2022-11-24T11:21:46.224Z,987.78
2022-11-24T11:22:47.955Z,987.81
2022-11-24T11:23:49.673Z,987.76
2022-11-24T11:24:51.409Z,987.76
2022-11-24T11:25:53.137Z,987.72
2022-11-24T11:26:54.867Z,987.76
2022-11-24T11:27:56.603Z,987.77
2022-11-24T11:31:15.585Z,987.73
2022-11-24T11:31:19.965Z,987.86
2022-11-24T11:34:10.917Z,987.88
2022-11-24T11:35:08.731Z,987.81
2022-11-24T11:36:10.488Z,987.84
2022-11-24T11:37:12.207Z,987.81
2022-11-24T11:38:13.935Z,987.81
2022-11-24T11:39:15.673Z,987.89
2022-11-24T11:40:17.397Z,987.91
2022-11-24T11:41:19.186Z,987.88
2022-11-24T11:42:45.230Z,987.83
2022-11-24T11:43:22.611Z,987.91
2022-11-24T11:44:24.365Z,987.94
2022-11-24T11:45:26.129Z,987.95
2022-11-24T11:46:27.887Z,987.92
2022-11-24T11:47:29.602Z,987.87
2022-11-24T11:48:37.042Z,987.89
2022-11-24T11:49:33.012Z,987.89
2022-11-24T11:50:47.386Z,987.91
2022-11-24T11:51:36.508Z,987.91
2022-11-24T11:52:38.213Z,987.86
2022-11-24T11:53:39.928Z,987.83
2022-11-24T11:54:41.673Z,987.87
2022-11-24T11:55:49.499Z,987.88
2022-11-24T11:56:45.296Z,987.91
2022-11-24T11:57:46.858Z,987.9
2022-11-24T11:58:48.603Z,987.89
2022-11-24T11:59:50.381Z,987.87
2022-11-24T12:00:52.088Z,987.87
2022-11-24T12:01:53.840Z,987.84
2022-11-24T12:02:55.652Z,987.89
2022-11-24T12:03:57.463Z,987.89
2022-11-24T12:04:59.017Z,987.94
2022-11-24T12:06:00.761Z,987.94
2022-11-24T12:07:02.483Z,987.94
2022-11-24T12:08:09.595Z,988.03
2022-11-24T12:09:20.359Z,987.96
2022-11-24T12:10:07.665Z,988.03
2022-11-24T12:11:09.398Z,988.04
2022-11-24T12:12:11.147Z,988.06
2022-11-24T12:13:12.877Z,988.02
2022-11-24T12:14:14.584Z,988.11
2022-11-24T12:15:16.329Z,988.07
2022-11-24T12:16:18.132Z,988.07
2022-11-24T12:17:19.791Z,988.14
2022-11-24T12:18:55.129Z,988.18
2022-11-24T12:19:23.294Z,988.14
2022-11-24T12:20:24.995Z,988.13
2022-11-24T12:21:26.984Z,988.19
2022-11-24T12:22:28.464Z,988.18
2022-11-24T12:23:30.221Z,988.2
2022-11-24T12:24:32.005Z,988.27
2022-11-24T12:25:33.669Z,988.21
2022-11-24T12:26:35.394Z,988.23
2022-11-24T12:27:37.115Z,988.25
2022-11-24T12:28:38.856Z,988.26
2022-11-24T12:29:40.592Z,988.28
2022-11-24T12:30:42.339Z,988.31
2022-11-24T12:31:44.095Z,988.32
2022-11-24T12:32:45.799Z,988.31
2022-11-24T12:33:51.065Z,988.33
2022-11-24T12:34:49.245Z,988.27
2022-11-24T12:35:51.001Z,988.3
2022-11-24T12:36:52.775Z,988.27
2022-11-24T12:37:54.465Z,988.33
2022-11-24T12:38:56.181Z,988.3
2022-11-24T12:39:57.926Z,988.35
2022-11-24T12:41:33.249Z,988.35
2022-11-24T12:42:01.407Z,988.35
2022-11-24T12:43:03.203Z,988.33
2022-11-24T12:44:05.106Z,988.33
2022-11-24T12:45:06.593Z,988.34
2022-11-24T12:46:13.938Z,988.32
2022-11-24T12:47:10.179Z,988.37
2022-11-24T12:48:11.796Z,988.4
2022-11-24T12:49:13.527Z,988.34
2022-11-24T12:50:15.260Z,988.33
2022-11-24T12:51:16.981Z,988.37
2022-11-24T12:52:18.740Z,988.31
2022-11-24T12:53:20.502Z,988.35
2022-11-24T12:54:22.196Z,988.35
2022-11-24T12:55:23.952Z,988.32
2022-11-24T12:56:25.657Z,988.34
2022-11-24T12:57:27.419Z,988.36
2022-11-24T12:58:29.130Z,988.34